Time;durP1;ratioP1;P1;durP2;ratioP2;P2;SDS_P1;SDS_P2;PMS_P1;PMS_P2;Temp;Humidity;BMP_temperature;BMP_pressure;BME280_temperature;BME280_humidity;BME280_pressure;Samples;Min_cycle;Max_cycle;Signal;HPM_P1;HPM_P2
2023/06/26 00:00:12;;;;;;;6.03;3.72;;;;;;;19.92;100.00;100860.69;4989476;28;20022;-75
2023/06/26 00:02:37;;;;;;;5.97;4.60;;;;;;;19.91;100.00;100850.91;5021148;28;20053;-74
2023/06/26 00:05:02;;;;;;;8.03;4.50;;;;;;;19.90;100.00;100848.41;5004108;28;20030;-75
2023/06/26 00:07:33;;;;;;;5.43;4.33;;;;;;;19.81;100.00;100843.28;5005579;28;20030;-75
2023/06/26 00:10:00;;;;;;;7.65;5.35;;;;;;;19.80;100.00;100862.44;5020230;28;20049;-75
2023/06/26 00:12:25;;;;;;;;;;;;;;;19.73;100.00;100881.47;5005836;28;20324;-75
2023/06/26 00:14:54;;;;;;;7.80;4.85;;;;;;;19.74;100.00;100880.44;5003380;28;19964;-75
2023/06/26 00:17:20;;;;;;;4.82;4.32;;;;;;;19.72;100.00;100879.81;5005411;28;20065;-75
2023/06/26 00:19:49;;;;;;;6.30;4.32;;;;;;;19.71;100.00;100886.25;5003577;28;20525;-75
2023/06/26 00:22:15;;;;;;;6.15;4.63;;;;;;;19.65;100.00;100876.28;5005186;28;20093;-75
2023/06/26 00:24:40;;;;;;;10.47;4.63;;;;;;;19.63;100.00;100872.97;5004851;28;20125;-75
2023/06/26 00:27:06;;;;;;;6.20;4.40;;;;;;;19.54;100.00;100868.88;5004879;28;20484;-75
2023/06/26 00:29:31;;;;;;;5.03;4.38;;;;;;;19.54;100.00;100856.16;5005536;28;20358;-74
2023/06/26 00:31:56;;;;;;;7.53;5.43;;;;;;;19.48;100.00;100867.03;5004601;28;20026;-75
2023/06/26 00:34:22;;;;;;;6.07;4.57;;;;;;;19.34;100.00;100874.44;5006151;28;20120;-75
2023/06/26 00:36:47;;;;;;;7.00;4.27;;;;;;;19.24;100.00;100898.41;5019548;28;20025;-75
2023/06/26 00:39:13;;;;;;;5.30;4.27;;;;;;;19.21;100.00;100896.13;4988581;28;20045;-75
2023/06/26 00:41:40;;;;;;;9.25;4.85;;;;;;;19.21;100.00;100896.97;5003627;28;20406;-74
2023/06/26 00:44:06;;;;;;;7.30;5.13;;;;;;;19.17;100.00;100893.03;5019798;28;20041;-75
2023/06/26 00:46:32;;;;;;;6.93;5.13;;;;;;;19.14;100.00;100904.28;5019635;28;20040;-75
2023/06/26 00:48:59;;;;;;;7.80;5.22;;;;;;;19.14;100.00;100912.41;5019301;28;20046;-75
2023/06/26 00:51:26;;;;;;;6.47;5.20;;;;;;;19.23;100.00;100903.00;5005502;28;20438;-75
2023/06/26 00:53:52;;;;;;;8.50;5.35;;;;;;;19.19;100.00;100888.22;5003280;28;20490;-74
2023/06/26 00:56:19;;;;;;;10.77;6.00;;;;;;;19.10;100.00;100879.53;5006235;28;20010;-75
2023/06/26 00:58:45;;;;;;;7.70;5.32;;;;;;;19.14;100.00;100891.59;5005255;28;20042;-75
2023/06/26 01:01:14;;;;;;;7.97;5.18;;;;;;;19.07;100.00;100879.97;5006372;28;20072;-75
2023/06/26 01:03:39;;;;;;;8.18;5.18;;;;;;;19.11;100.00;100877.66;5005660;28;20042;-75
2023/06/26 01:06:05;;;;;;;10.03;5.30;;;;;;;19.08;100.00;100881.63;5005321;28;20064;-74
2023/06/26 01:08:31;;;;;;;6.63;5.20;;;;;;;18.96;100.00;100889.59;5004952;28;20273;-74
2023/06/26 01:10:59;;;;;;;6.90;5.37;;;;;;;18.98;100.00;100890.19;5004917;28;20036;-74
2023/06/26 01:13:24;;;;;;;7.15;5.82;;;;;;;18.92;100.00;100892.94;5004776;28;20285;-75
2023/06/26 01:15:52;;;;;;;11.55;5.90;;;;;;;18.87;100.00;100882.75;5004205;28;20018;-74
2023/06/26 01:18:19;;;;;;;6.60;5.38;;;;;;;18.93;100.00;100879.19;5004742;28;20037;-75
2023/06/26 01:20:45;;;;;;;8.90;5.38;;;;;;;18.96;100.00;100877.91;4988236;28;20029;-75
2023/06/26 01:23:20;;;;;;;9.55;6.40;;;;;;;19.00;100.00;100872.94;5005627;28;20123;-75
2023/06/26 01:26:11;;;;;;;18.02;6.80;;;;;;;19.03;100.00;100861.66;5020856;28;20041;-75
2023/06/26 01:28:40;;;;;;;9.73;6.40;;;;;;;19.06;100.00;100856.66;4988362;28;20049;-75
2023/06/26 01:31:08;;;;;;;9.10;5.85;;;;;;;19.01;100.00;100855.63;5002379;28;20021;-74
2023/06/26 01:33:34;;;;;;;9.25;7.13;;;;;;;18.98;100.00;100846.06;4997555;28;20053;-75
2023/06/26 01:36:00;;;;;;;9.35;6.10;;;;;;;18.94;100.00;100848.41;5019334;28;20061;-74
2023/06/26 01:38:26;;;;;;;8.85;6.65;;;;;;;19.03;100.00;100856.25;5004451;28;20033;-74
2023/06/26 01:40:52;;;;;;;7.50;6.13;;;;;;;19.10;100.00;100827.28;5004502;28;20029;-75
2023/06/26 01:43:38;;;;;;;9.07;6.82;;;;;;;19.10;100.00;100813.75;5004191;28;20562;-74
2023/06/26 01:46:16;;;;;;;7.45;6.43;;;;;;;19.07;100.00;100809.59;5019860;28;20022;-75
2023/06/26 01:49:13;;;;;;;8.00;7.07;;;;;;;19.17;100.00;100801.00;5004562;28;20041;-76
2023/06/26 01:51:47;;;;;;;9.27;7.35;;;;;;;19.10;100.00;100795.63;5000301;28;20093;-75
2023/06/26 01:54:19;;;;;;;8.00;7.00;;;;;;;19.11;100.00;100786.50;4987941;28;20021;-75
2023/06/26 01:56:48;;;;;;;9.55;8.25;;;;;;;19.10;100.00;100797.53;4986923;28;20545;-75
2023/06/26 01:59:14;;;;;;;13.07;7.28;;;;;;;19.09;100.00;100799.41;4988117;28;20034;-75
2023/06/26 02:01:40;;;;;;;9.10;8.20;;;;;;;19.09;100.00;100782.34;5004419;28;20548;-75
2023/06/26 02:04:05;;;;;;;11.53;7.83;;;;;;;19.05;100.00;100768.41;4987611;28;20038;-75
2023/06/26 02:06:31;;;;;;;9.03;7.87;;;;;;;19.03;100.00;100765.09;5003820;28;20084;-74
2023/06/26 02:08:58;;;;;;;9.80;8.10;;;;;;;18.94;100.00;100771.81;5005238;28;20060;-75
2023/06/26 02:11:23;;;;;;;10.67;8.43;;;;;;;18.88;100.00;100776.22;5004249;28;20069;-75
2023/06/26 02:13:49;;;;;;;10.83;8.00;;;;;;;18.89;100.00;100769.75;4986977;28;20021;-75
2023/06/26 02:16:14;;;;;;;10.20;8.03;;;;;;;18.88;100.00;100768.09;5003764;28;20037;-75
2023/06/26 02:18:41;;;;;;;10.60;8.05;;;;;;;18.86;100.00;100764.78;5006959;28;20103;-74
2023/06/26 02:21:07;;;;;;;10.70;8.50;;;;;;;18.89;100.00;100774.34;5007901;28;20042;-74
2023/06/26 02:23:32;;;;;;;8.70;7.75;;;;;;;18.78;100.00;100770.47;5009274;28;20030;-75
2023/06/26 02:25:58;;;;;;;11.10;8.73;;;;;;;18.77;100.00;100779.59;4990713;28;20929;-75
2023/06/26 02:28:23;;;;;;;9.77;8.17;;;;;;;18.75;100.00;100787.06;4991828;28;20453;-75
2023/06/26 02:30:48;;;;;;;12.53;9.47;;;;;;;18.71;100.00;100793.97;5009131;28;20545;-74
2023/06/26 02:33:14;;;;;;;10.33;8.87;;;;;;;18.71;100.00;100818.31;5008935;28;20029;-74
2023/06/26 02:35:39;;;;;;;10.90;8.93;;;;;;;18.63;100.00;100815.81;5007321;28;20096;-75
2023/06/26 02:38:04;;;;;;;9.37;8.37;;;;;;;18.51;100.00;100810.25;4991350;28;20061;-75
2023/06/26 02:40:30;;;;;;;10.73;7.90;;;;;;;18.42;100.00;100817.75;4991305;28;20092;-75
2023/06/26 02:42:55;;;;;;;11.53;8.73;;;;;;;18.35;100.00;100828.63;5007716;28;20029;-75
2023/06/26 02:45:21;;;;;;;10.07;8.43;;;;;;;18.31;100.00;100837.34;5007552;28;20273;-74
2023/06/26 02:47:46;;;;;;;9.37;8.10;;;;;;;18.26;100.00;100840.69;5007485;28;20030;-74
2023/06/26 02:50:12;;;;;;;10.13;9.00;;;;;;;18.25;100.00;100838.19;5007633;28;20299;-75
2023/06/26 02:53:03;;;;;;;10.13;9.02;;;;;;;18.21;100.00;100834.25;5006612;28;20053;-74
2023/06/26 02:55:29;;;;;;;10.73;8.73;;;;;;;18.23;100.00;100835.69;4991073;28;20033;-74
2023/06/26 02:57:54;;;;;;;12.57;8.80;;;;;;;18.20;100.00;100835.28;5007543;28;20164;-74
2023/06/26 03:00:20;;;;;;;11.23;8.82;;;;;;;18.18;100.00;100823.84;5007739;28;20038;-75
2023/06/26 03:02:48;;;;;;;12.07;9.60;;;;;;;18.19;100.00;100828.22;5007135;28;20032;-75
2023/06/26 03:05:17;;;;;;;13.68;8.75;;;;;;;18.18;100.00;100811.19;4990981;28;20033;-74
2023/06/26 03:07:43;;;;;;;12.52;9.38;;;;;;;18.19;100.00;100806.59;5007110;28;20014;-74
2023/06/26 03:10:09;;;;;;;10.93;8.82;;;;;;;18.19;100.00;100812.00;5007143;28;20120;-74
2023/06/26 03:12:34;;;;;;;13.37;9.83;;;;;;;18.20;100.00;100809.09;5007011;28;20161;-75
2023/06/26 03:15:00;;;;;;;10.27;8.73;;;;;;;18.22;100.00;100800.78;4990474;28;20033;-74
2023/06/26 03:17:26;;;;;;;11.05;8.85;;;;;;;18.24;100.00;100793.28;4990591;28;20034;-74
2023/06/26 03:19:54;;;;;;;10.98;9.13;;;;;;;18.24;100.00;100801.38;5023038;28;20060;-75
2023/06/26 03:22:21;;;;;;;9.88;8.73;;;;;;;18.23;100.00;100799.72;4990947;28;20030;-75
2023/06/26 03:24:47;;;;;;;10.10;9.00;;;;;;;18.24;100.00;100794.13;5022673;28;20037;-74
2023/06/26 03:27:13;;;;;;;9.68;8.68;;;;;;;18.34;100.00;100799.09;5007251;28;20017;-74
2023/06/26 03:29:38;;;;;;;11.07;9.10;;;;;;;18.38;100.00;100794.06;5006320;28;20033;-75
2023/06/26 03:32:04;;;;;;;12.85;9.63;;;;;;;18.33;100.00;100783.91;4990405;28;20772;-75
2023/06/26 03:34:30;;;;;;;11.60;9.82;;;;;;;18.22;100.00;100780.00;5006914;28;20038;-75
2023/06/26 03:36:55;;;;;;;12.87;10.03;;;;;;;18.16;100.00;100780.00;5007411;28;20142;-75
2023/06/26 03:39:22;;;;;;;14.00;9.20;;;;;;;18.20;100.00;100786.66;5006741;28;20038;-75
2023/06/26 03:41:47;;;;;;;11.95;9.38;;;;;;;18.28;100.00;100789.13;5006684;28;20045;-75
2023/06/26 03:44:13;;;;;;;10.87;8.87;;;;;;;18.31;100.00;100777.91;5006293;28;20041;-75
2023/06/26 03:46:44;;;;;;;10.95;9.77;;;;;;;18.31;100.00;100777.91;5022544;28;20034;-74
2023/06/26 03:49:10;;;;;;;11.87;9.00;;;;;;;18.38;100.00;100775.16;5006590;28;20128;-75
2023/06/26 03:51:36;;;;;;;13.02;9.88;;;;;;;18.45;100.00;100773.25;4990321;28;20888;-75
2023/06/26 03:54:01;;;;;;;11.57;9.83;;;;;;;18.53;100.00;100760.34;4989657;28;20101;-75
2023/06/26 03:56:27;;;;;;;10.97;9.47;;;;;;;18.56;100.00;100735.56;5006065;28;20022;-74
2023/06/26 03:58:55;;;;;;;11.93;9.13;;;;;;;18.64;100.00;100725.56;5022009;28;20714;-74
2023/06/26 04:01:21;;;;;;;11.40;9.20;;;;;;;18.75;100.00;100720.31;5006535;28;20022;-75
2023/06/26 04:03:48;;;;;;;12.90;10.13;;;;;;;18.86;100.00;100689.03;5005847;28;20036;-75
2023/06/26 04:06:13;;;;;;;12.53;9.43;;;;;;;18.93;100.00;100668.19;5007051;28;20117;-74
2023/06/26 04:08:38;;;;;;;12.60;9.63;;;;;;;19.09;100.00;100652.47;5022800;28;20062;-75
2023/06/26 04:11:04;;;;;;;12.10;9.00;;;;;;;19.17;100.00;100628.66;5007139;28;20529;-75
2023/06/26 04:13:30;;;;;;;12.43;9.80;;;;;;;19.16;100.00;100608.06;5005602;28;20034;-75
2023/06/26 04:15:55;;;;;;;12.67;9.40;;;;;;;19.26;100.00;100602.13;5021380;28;20034;-75
2023/06/26 04:18:23;;;;;;;11.32;9.35;;;;;;;19.45;100.00;100616.50;5006068;28;20461;-75
2023/06/26 04:21:11;;;;;;;12.03;9.60;;;;;;;19.51;100.00;100615.63;5006575;28;20021;-75
2023/06/26 04:23:37;;;;;;;11.40;8.65;;;;;;;19.69;100.00;100622.13;5002599;28;20108;-74
2023/06/26 04:26:04;;;;;;;;;;;;;;;19.71;100.00;100585.63;5006438;28;20021;-74
2023/06/26 04:28:31;;;;;;;10.50;8.90;;;;;;;19.78;100.00;100559.31;5006522;28;19924;-75
2023/06/26 04:30:56;;;;;;;10.77;8.52;;;;;;;19.76;100.00;100530.78;5006436;28;20061;-74
2023/06/26 04:33:23;;;;;;;10.67;8.63;;;;;;;19.86;100.00;100546.50;5005667;28;20069;-75
2023/06/26 04:35:48;;;;;;;11.45;9.40;;;;;;;19.92;100.00;100513.88;5004976;28;20025;-74
2023/06/26 04:38:15;;;;;;;12.30;9.40;;;;;;;20.01;100.00;100522.53;5005678;28;20038;-74
2023/06/26 04:40:40;;;;;;;13.68;9.43;;;;;;;20.05;100.00;100495.81;4988279;28;20786;-75
2023/06/26 04:43:06;;;;;;;14.60;8.25;;;;;;;20.12;100.00;100456.69;5006021;28;20041;-74
2023/06/26 04:45:32;;;;;;;11.77;8.73;;;;;;;20.38;100.00;100493.41;5005712;28;20105;-75
2023/06/26 04:48:00;;;;;;;9.95;8.70;;;;;;;20.58;100.00;100474.13;5006223;28;20175;-75
2023/06/26 04:50:25;;;;;;;9.00;8.10;;;;;;;20.56;100.00;100440.16;5006438;28;20124;-75
2023/06/26 04:52:51;;;;;;;11.55;8.98;;;;;;;20.63;100.00;100446.31;5005098;28;20128;-75
2023/06/26 04:55:16;;;;;;;10.93;7.87;;;;;;;20.70;100.00;100449.72;4988841;28;20120;-75
2023/06/26 04:57:42;;;;;;;9.83;8.80;;;;;;;20.63;100.00;100454.44;5005115;28;20343;-75
2023/06/26 05:00:10;;;;;;;10.53;9.40;;;;;;;20.73;100.00;100441.09;5005689;28;20037;-75
2023/06/26 05:02:36;;;;;;;10.13;8.60;;;;;;;20.95;100.00;100476.56;5006287;28;20970;-74
2023/06/26 05:05:01;;;;;;;10.30;8.68;;;;;;;21.02;100.00;100424.88;5004973;28;20057;-75
2023/06/26 05:07:27;;;;;;;10.30;7.57;;;;;;;21.12;100.00;100418.84;5005135;28;20038;-75
2023/06/26 05:09:52;;;;;;;15.60;8.80;;;;;;;21.06;100.00;100397.03;5005171;28;20142;-74
2023/06/26 05:12:17;;;;;;;10.00;8.17;;;;;;;21.21;100.00;100401.09;5005284;28;20052;-75
2023/06/26 05:14:43;;;;;;;11.37;8.23;;;;;;;21.41;100.00;100390.69;5004799;28;20029;-75
2023/06/26 05:17:08;;;;;;;12.15;8.98;;;;;;;21.48;100.00;100334.31;5006088;28;20475;-74
2023/06/26 05:19:34;;;;;;;11.53;7.60;;;;;;;21.78;100.00;100308.75;5006490;28;20137;-75
2023/06/26 05:22:03;;;;;;;9.87;8.07;;;;;;;21.89;100.00;100301.56;4988525;28;20284;-75
2023/06/26 05:24:30;;;;;;;8.68;7.78;;;;;;;22.06;100.00;100222.75;4999441;28;20030;-75
2023/06/26 05:26:55;;;;;;;10.90;8.02;;;;;;;21.99;100.00;100174.00;5005046;28;20034;-75
2023/06/26 05:29:21;;;;;;;9.35;7.80;;;;;;;22.13;100.00;100190.78;5004901;28;20085;-74
2023/06/26 05:31:49;;;;;;;9.25;7.20;;;;;;;22.50;100.00;100222.75;5005300;28;20041;-75
2023/06/26 05:34:15;;;;;;;12.43;7.40;;;;;;;22.70;100.00;100195.78;5004854;28;20033;-75
2023/06/26 05:36:43;;;;;;;9.63;7.93;;;;;;;22.99;100.00;100165.63;5005182;28;20127;-72
2023/06/26 05:39:08;;;;;;;11.10;7.20;;;;;;;23.06;100.00;100068.25;5004378;28;20021;-73
2023/06/26 05:41:34;;;;;;;10.23;7.95;;;;;;;23.30;100.00;100002.50;5028669;22;20040;-70
2023/06/26 05:43:59;;;;;;;8.05;7.22;;;;;;;24.38;100.00;100066.38;5003656;28;20072;-71
2023/06/26 05:46:25;;;;;;;8.83;6.43;;;;;;;25.30;100.00;99850.56;5003710;28;20489;-71
2023/06/26 05:48:50;;;;;;;10.10;6.53;;;;;;;25.78;97.77;99754.28;5003260;28;20043;-71
2023/06/26 05:51:16;;;;;;;22.63;7.45;;;;;;;24.73;96.58;99630.84;5003633;28;20045;-71
2023/06/26 05:53:41;;;;;;;7.95;7.13;;;;;;;24.39;98.07;99716.91;5003461;28;20030;-71
2023/06/26 05:56:07;;;;;;;7.88;6.93;;;;;;;25.41;97.35;99895.84;5002241;28;20069;-71
2023/06/26 05:58:34;;;;;;;7.88;7.07;;;;;;;25.56;91.64;99632.59;4998580;28;20022;-72
2023/06/26 06:00:59;;;;;;;9.05;6.93;;;;;;;25.47;88.89;99531.34;4996503;28;20045;-71
2023/06/26 06:03:24;;;;;;;9.20;6.83;;;;;;;26.48;87.67;99741.00;5000800;28;20022;-71
2023/06/26 06:05:50;;;;;;;9.10;7.00;;;;;;;26.64;83.58;99527.31;4998184;28;20045;-71
2023/06/26 06:08:15;;;;;;;9.03;6.93;;;;;;;26.15;85.74;99687.22;4996858;28;20390;-72
2023/06/26 06:10:41;;;;;;;8.25;7.45;;;;;;;26.08;81.68;99371.16;5000546;28;20041;-72
2023/06/26 06:13:06;;;;;;;6.97;6.23;;;;;;;25.31;85.81;99614.56;4980730;28;20030;-72
2023/06/26 06:15:31;;;;;;;7.40;6.63;;;;;;;25.59;87.19;99806.09;4985974;28;21047;-72
2023/06/26 06:17:56;;;;;;;8.43;6.63;;;;;;;26.24;83.93;99707.34;4997870;28;20077;-72
2023/06/26 06:20:22;;;;;;;7.23;6.50;;;;;;;26.05;83.62;99656.16;5003724;28;20296;-72
2023/06/26 06:22:48;;;;;;;9.03;7.63;;;;;;;25.76;83.82;99644.44;5001007;28;20313;-72
2023/06/26 06:25:13;;;;;;;;;;;;;;;26.66;81.80;99664.69;4994898;28;20149;-72
2023/06/26 06:27:39;;;;;;;7.10;6.40;;;;;;;27.60;77.99;99553.28;5003824;28;19944;-72
2023/06/26 06:30:05;;;;;;;7.90;6.68;;;;;;;27.60;74.91;99342.19;5003033;28;20057;-71
2023/06/26 06:32:30;;;;;;;;;;;;;;;26.97;77.64;99573.84;4999758;28;20445;-71
2023/06/26 06:34:55;;;;;;;8.57;6.80;;;;;;;27.13;77.12;99583.44;4998742;28;20300;-72
2023/06/26 06:37:21;;;;;;;6.95;6.28;;;;;;;27.66;75.52;99590.44;5000407;28;20066;-72
2023/06/26 06:39:46;;;;;;;9.10;6.68;;;;;;;27.87;74.42;99528.63;4997568;28;20081;-71
2023/06/26 06:42:11;;;;;;;;;;;;;;;28.01;72.05;99410.63;4998252;28;20034;-71
2023/06/26 06:44:37;;;;;;;8.90;7.00;;;;;;;27.67;73.11;99474.97;5003235;28;19914;-71
2023/06/26 06:47:02;;;;;;;;;;;;;;;28.04;71.45;99400.97;4997457;28;20030;-72
2023/06/26 06:49:27;;;;;;;9.90;6.60;;;;;;;27.59;71.10;99308.50;5000392;28;19936;-72
2023/06/26 06:51:53;;;;;;;14.93;6.47;;;;;;;27.40;72.21;99431.19;5001496;28;20026;-72
2023/06/26 06:54:19;;;;;;;6.22;5.63;;;;;;;27.17;72.49;99390.78;4996013;28;20455;-72
2023/06/26 06:56:44;;;;;;;7.43;6.45;;;;;;;28.25;71.47;99546.72;5002510;28;20014;-71
2023/06/26 06:59:10;;;;;;;9.20;6.30;;;;;;;28.12;69.65;99326.13;5003338;28;20025;-72
2023/06/26 07:01:35;;;;;;;8.40;6.20;;;;;;;27.91;69.15;99277.31;4996947;28;20032;-71
2023/06/26 07:04:00;;;;;;;;;;;;;;;28.46;68.02;99306.34;4999593;28;20038;-72
2023/06/26 07:06:26;;;;;;;7.07;6.30;;;;;;;27.68;68.34;99199.72;5002517;28;19960;-72
2023/06/26 07:08:51;;;;;;;6.00;5.32;;;;;;;27.44;69.90;99356.28;5005214;28;20123;-72
2023/06/26 07:11:16;;;;;;;7.38;6.18;;;;;;;28.26;69.24;99468.75;5001156;28;20030;-71
2023/06/26 07:13:42;;;;;;;9.75;6.03;;;;;;;27.00;69.91;99198.88;5003191;28;20060;-72
2023/06/26 07:16:09;;;;;;;;;;;;;;;27.41;69.69;99362.34;5001304;28;20079;-71
2023/06/26 07:18:35;;;;;;;9.27;6.18;;;;;;;27.57;69.18;99333.47;5007018;28;19956;-72
2023/06/26 07:21:01;;;;;;;6.50;5.43;;;;;;;27.89;68.59;99339.88;5000539;28;20079;-73
2023/06/26 07:23:27;;;;;;;7.03;6.20;;;;;;;27.53;68.67;99243.97;5004888;28;20042;-73
2023/06/26 07:25:52;;;;;;;6.25;5.53;;;;;;;28.25;66.81;99308.78;5005518;28;20037;-72
2023/06/26 07:28:17;;;;;;;8.65;5.70;;;;;;;29.16;66.66;99540.94;4993118;28;20026;-72
2023/06/26 07:30:42;;;;;;;;;;;;;;;28.42;65.67;99190.88;5005292;28;20390;-72
2023/06/26 07:33:08;;;;;;;6.57;5.93;;;;;;;27.69;66.88;99152.00;4998440;28;20004;-72
2023/06/26 07:35:33;;;;;;;9.65;5.97;;;;;;;28.72;66.20;99420.97;4999768;28;20034;-72
2023/06/26 07:37:59;;;;;;;;;;;;;;;28.57;65.69;99268.44;4998906;28;20502;-72
2023/06/26 07:40:26;;;;;;;7.67;6.07;;;;;;;28.19;66.03;99275.22;5003418;28;20394;-72
2023/06/26 07:42:51;;;;;;;8.77;6.38;;;;;;;28.21;65.99;99291.34;4999071;28;20041;-72
2023/06/26 07:45:16;;;;;;;7.10;5.60;;;;;;;28.27;65.50;99224.22;5000497;28;20034;-72
2023/06/26 07:47:42;;;;;;;;;;;;;;;28.09;65.95;99212.38;4986995;28;20036;-72
2023/06/26 07:50:07;;;;;;;7.47;6.10;;;;;;;28.59;64.52;99256.03;5000056;28;19924;-72
2023/06/26 07:52:34;;;;;;;7.60;5.65;;;;;;;29.55;63.37;99349.63;5000272;28;20506;-73
2023/06/26 07:54:59;;;;;;;7.13;5.55;;;;;;;28.49;62.35;98926.91;5000128;28;20041;-72
2023/06/26 07:57:25;;;;;;;7.03;6.18;;;;;;;28.07;63.36;98923.84;4999830;28;20034;-72
2023/06/26 07:59:50;;;;;;;;;;;;;;;28.98;63.66;99280.97;5003306;28;20111;-72
2023/06/26 08:02:15;;;;;;;7.63;5.63;;;;;;;28.25;63.24;98945.81;5002665;28;20462;-72
2023/06/26 08:04:41;;;;;;;;;;;;;;;28.41;64.07;99191.19;5003347;28;20061;-73
2023/06/26 08:07:06;;;;;;;6.00;5.37;;;;;;;29.61;62.81;99406.06;4999926;28;19917;-73
2023/06/26 08:09:32;;;;;;;5.95;5.20;;;;;;;29.52;60.04;98959.84;5000400;28;20030;-72
2023/06/26 08:11:58;;;;;;;8.65;5.25;;;;;;;28.81;62.70;99101.28;4985284;28;20410;-72
2023/06/26 08:14:24;;;;;;;;;;;;;;;29.40;61.83;99196.16;4999656;28;20034;-73
2023/06/26 08:16:49;;;;;;;6.32;5.68;;;;;;;29.44;61.30;99098.97;5000005;28;20008;-71
2023/06/26 08:19:15;;;;;;;;;;;;;;;29.41;61.05;99072.13;5001456;28;20033;-72
2023/06/26 08:21:41;;;;;;;;;;;;;;;29.68;60.55;99081.09;5003095;28;19920;-72
2023/06/26 08:24:06;;;;;;;11.18;6.32;;;;;;;29.56;60.52;99009.50;5002229;28;19921;-73
2023/06/26 08:26:32;;;;;;;;;;;;;;;29.74;60.09;99049.56;5002874;28;20029;-72
2023/06/26 08:28:57;;;;;;;6.55;5.95;;;;;;;29.87;58.67;98899.94;4999507;28;20390;-73
2023/06/26 08:31:22;;;;;;;;;;;;;;;29.99;58.17;98945.19;5002979;28;20030;-73
2023/06/26 08:33:48;;;;;;;6.90;5.90;;;;;;;30.14;57.10;98872.25;5004617;28;19920;-72
2023/06/26 08:36:13;;;;;;;;;;;;;;;29.79;58.82;98999.84;5005612;28;20331;-73
2023/06/26 08:38:41;;;;;;;6.83;5.87;;;;;;;29.84;57.92;98873.13;5000741;28;20573;-72
2023/06/26 08:41:07;;;;;;;9.82;6.55;;;;;;;30.40;56.56;98946.31;4999920;28;20059;-72
2023/06/26 08:43:34;;;;;;;13.35;5.72;;;;;;;29.59;56.62;98651.41;4998154;28;20120;-72
2023/06/26 08:46:00;;;;;;;7.40;5.45;;;;;;;29.48;57.56;98784.91;5000021;28;20022;-72
2023/06/26 08:48:25;;;;;;;6.75;6.15;;;;;;;29.88;55.92;98722.78;5004217;28;20030;-72
2023/06/26 08:50:52;;;;;;;;;;;;;;;30.20;55.47;98772.59;4999170;28;20391;-73
2023/06/26 08:53:30;;;;;;;6.43;5.82;;;;;;;29.58;55.96;98623.13;5003434;28;19913;-73
2023/06/26 08:55:57;;;;;;;6.53;5.93;;;;;;;30.23;55.52;98785.69;4999190;28;20547;-73
2023/06/26 08:58:23;;;;;;;5.95;5.35;;;;;;;30.17;55.65;98802.75;5004038;28;20042;-73
2023/06/26 09:00:49;;;;;;;;;;;;;;;29.89;55.74;98649.31;5003518;28;20034;-72
2023/06/26 09:03:15;;;;;;;6.30;5.45;;;;;;;30.40;55.47;98867.28;5002861;28;19916;-73
2023/06/26 09:05:40;;;;;;;;;;;;;;;30.41;54.07;98672.66;5000805;28;20494;-73
2023/06/26 09:08:06;;;;;;;;;;;;;;;30.33;53.67;98599.28;5002705;28;19978;-73
2023/06/26 09:10:32;;;;;;;8.70;6.18;;;;;;;30.55;53.92;98717.16;5002066;28;20365;-73
2023/06/26 09:12:58;;;;;;;;;;;;;;;29.87;54.24;98542.41;5001450;28;20033;-72
2023/06/26 09:15:24;;;;;;;6.68;5.40;;;;;;;30.24;53.87;98638.69;5003109;28;19922;-72
2023/06/26 09:17:49;;;;;;;;;;;;;;;30.62;54.14;98797.22;4999170;28;20036;-73
2023/06/26 09:20:15;;;;;;;6.03;5.43;;;;;;;29.80;54.35;98486.38;4999083;28;19913;-72
2023/06/26 09:22:41;;;;;;;;;;;;;;;29.41;54.93;98555.41;4983884;28;20497;-74
2023/06/26 09:25:07;;;;;;;11.98;6.40;;;;;;;29.46;55.80;98634.91;5000464;28;20377;-73
2023/06/26 09:27:33;;;;;;;9.02;6.07;;;;;;;29.15;56.31;98587.84;4994676;28;20072;-73
2023/06/26 09:29:59;;;;;;;6.85;6.22;;;;;;;28.58;57.13;98568.13;5001048;28;20039;-73
2023/06/26 09:32:24;;;;;;;8.05;5.38;;;;;;;28.67;57.70;98677.88;5001232;28;20025;-72
2023/06/26 09:34:52;;;;;;;10.20;5.97;;;;;;;28.50;59.00;98812.47;4995796;28;20048;-72
2023/06/26 09:37:17;;;;;;;9.07;6.22;;;;;;;27.63;61.41;98864.63;4999690;28;20034;-72
2023/06/26 09:39:43;;;;;;;14.27;6.50;;;;;;;26.88;72.95;99752.53;4997994;28;20494;-72
2023/06/26 09:42:09;;;;;;;14.25;7.70;;;;;;;26.19;85.32;100192.41;4998597;28;20641;-72
2023/06/26 09:44:35;;;;;;;13.00;8.20;;;;;;;25.94;91.04;100269.88;5001753;28;20536;-72
2023/06/26 09:47:03;;;;;;;10.15;7.57;;;;;;;25.92;92.27;100211.94;4995964;28;20145;-71
2023/06/26 09:49:29;;;;;;;10.80;7.60;;;;;;;26.34;86.99;100010.94;4996641;28;20080;-72
2023/06/26 09:51:54;;;;;;;9.48;6.90;;;;;;;26.74;83.95;99869.38;4999212;28;20512;-72
2023/06/26 09:54:21;;;;;;;10.70;7.00;;;;;;;26.95;80.68;99739.28;5000016;28;20204;-72
2023/06/26 09:56:47;;;;;;;8.32;6.82;;;;;;;27.10;79.73;99734.69;5000489;28;20284;-72
2023/06/26 09:59:13;;;;;;;10.90;7.63;;;;;;;26.64;76.16;99409.63;5001255;28;20514;-72
2023/06/26 10:01:46;;;;;;;11.43;7.35;;;;;;;26.85;78.09;99629.91;5003965;28;20403;-72
2023/06/26 10:04:11;;;;;;;10.00;7.97;;;;;;;26.60;80.22;99721.44;5002421;28;20044;-72
2023/06/26 10:06:49;;;;;;;13.02;9.23;;;;;;;26.63;83.17;99896.03;5003184;28;20017;-72
2023/06/26 10:09:32;;;;;;;15.07;10.80;;;;;;;26.35;85.27;99892.19;4994691;28;20121;-72
2023/06/26 10:12:15;;;;;;;20.42;13.10;;;;;;;25.54;89.46;99973.66;4999038;28;20129;-72
2023/06/26 10:14:41;;;;;;;15.70;12.00;;;;;;;25.27;94.85;100144.22;4998109;28;20535;-72
2023/06/26 10:17:10;;;;;;;15.55;13.30;;;;;;;25.23;94.20;100076.78;5000464;28;20172;-72
2023/06/26 10:19:38;;;;;;;19.33;14.80;;;;;;;25.20;95.91;100116.38;5000944;28;20072;-72
2023/06/26 10:22:04;;;;;;;12.88;11.38;;;;;;;25.42;96.22;100153.50;4997516;28;20037;-72
2023/06/26 10:24:31;;;;;;;;;;;;;;;25.63;95.01;100146.09;5004132;28;20034;-72
2023/06/26 10:27:25;;;;;;;16.77;11.65;;;;;;;24.98;95.99;100050.28;5003480;28;19967;-72
2023/06/26 10:30:02;;;;;;;12.38;9.88;;;;;;;24.74;100.00;100156.47;4993187;28;20062;-73
2023/06/26 10:32:29;;;;;;;12.02;9.13;;;;;;;24.28;100.00;100126.34;4996417;28;20445;-71
2023/06/26 10:34:55;;;;;;;15.55;9.05;;;;;;;23.87;100.00;100232.50;5002925;28;20391;-72
2023/06/26 10:37:21;;;;;;;12.40;8.85;;;;;;;23.70;100.00;100330.75;5001200;28;20482;-72
2023/06/26 10:39:51;;;;;;;20.17;9.85;;;;;;;22.96;100.00;100597.00;5005088;28;20025;-71
2023/06/26 10:42:18;;;;;;;26.70;12.20;;;;;;;21.98;100.00;100837.44;5002258;28;20038;-72
2023/06/26 10:44:45;;;;;;;21.48;11.73;;;;;;;21.39;100.00;100832.69;5006423;28;20410;-72
2023/06/26 10:47:12;;;;;;;20.08;12.80;;;;;;;21.06;100.00;100844.03;5002678;28;20477;-72
2023/06/26 10:49:42;;;;;;;19.50;12.52;;;;;;;21.13;100.00;100865.66;5003384;28;20033;-72
2023/06/26 10:52:07;;;;;;;15.70;12.40;;;;;;;21.13;100.00;100839.34;5006933;28;20048;-72
2023/06/26 10:54:33;;;;;;;17.58;9.52;;;;;;;20.93;100.00;100801.63;5001359;28;20029;-72
2023/06/26 10:56:59;;;;;;;12.50;10.00;;;;;;;21.11;100.00;100798.03;5001452;28;20064;-73
2023/06/26 10:59:29;;;;;;;19.83;10.90;;;;;;;21.23;100.00;100798.88;5000859;28;20537;-72
2023/06/26 11:02:00;;;;;;;11.73;8.85;;;;;;;21.02;100.00;100739.69;5004887;28;20030;-72
2023/06/26 11:04:38;;;;;;;15.75;10.77;;;;;;;21.33;100.00;100786.63;5003501;28;20033;-73
2023/06/26 11:07:21;;;;;;;14.05;9.07;;;;;;;21.21;100.00;100764.88;5000446;28;20065;-72
2023/06/26 11:09:56;;;;;;;11.85;8.15;;;;;;;21.24;100.00;100710.16;5000583;28;20038;-73
2023/06/26 11:12:34;;;;;;;12.38;7.95;;;;;;;21.01;100.00;100690.03;5006387;28;20034;-72
2023/06/26 11:15:00;;;;;;;11.02;7.63;;;;;;;20.72;100.00;100670.03;4996518;28;20042;-73
2023/06/26 11:17:26;;;;;;;11.73;7.22;;;;;;;20.93;100.00;100741.09;5005752;28;20041;-73
2023/06/26 11:19:52;;;;;;;13.55;8.73;;;;;;;20.71;100.00;100729.94;5004984;28;20042;-72
2023/06/26 11:22:19;;;;;;;13.10;8.15;;;;;;;20.69;100.00;100761.88;4986937;28;20027;-73
2023/06/26 11:24:46;;;;;;;11.10;8.63;;;;;;;20.47;100.00;100740.66;5001521;28;20229;-73